createdAt,value
2023-01-06T00:00:07.211Z,69.38
2023-01-06T00:03:09.271Z,69.63
2023-01-06T00:06:12.583Z,69.50
2023-01-06T00:09:14.068Z,69.35
2023-01-06T00:12:15.563Z,69.39
2023-01-06T00:15:18.364Z,69.39
2023-01-06T00:18:19.821Z,69.38
2023-01-06T00:21:21.319Z,69.44
2023-01-06T00:24:22.808Z,69.42
2023-01-06T00:27:24.520Z,69.30
2023-01-06T00:30:27.175Z,69.44
2023-01-06T00:33:28.933Z,69.22
2023-01-06T00:36:30.664Z,69.35
2023-01-06T00:39:32.388Z,69.39
2023-01-06T00:42:33.851Z,69.11
2023-01-06T00:45:35.340Z,69.24
2023-01-06T00:48:36.859Z,69.41
2023-01-06T00:51:40.142Z,69.49
2023-01-06T00:54:42.914Z,69.43
2023-01-06T00:57:44.395Z,69.52
2023-01-06T01:00:47.137Z,69.68
2023-01-06T01:03:48.606Z,69.62
2023-01-06T01:06:51.933Z,69.73
2023-01-06T01:09:53.491Z,69.60
2023-01-06T01:12:55.299Z,69.75
2023-01-06T01:16:04.825Z,69.74
2023-01-06T01:19:08.447Z,69.71
2023-01-06T01:22:10.147Z,69.83
2023-01-06T01:25:11.645Z,69.75
2023-01-06T01:28:13.145Z,70.12
2023-01-06T01:31:16.601Z,69.99
2023-01-06T01:34:19.285Z,70.09
2023-01-06T01:37:20.801Z,70.36
2023-01-06T01:40:22.315Z,69.76
2023-01-06T01:43:23.857Z,70.16
2023-01-06T01:46:38.440Z,70.13
2023-01-06T01:49:42.167Z,70.17
2023-01-06T01:52:46.294Z,70.18
2023-01-06T01:55:50.485Z,70.22
2023-01-06T01:59:06.296Z,70.26
2023-01-06T02:02:08.564Z,70.18
2023-01-06T02:05:13.973Z,70.14
2023-01-06T02:08:38.176Z,70.24
2023-01-06T02:11:41.264Z,70.34
2023-01-06T02:14:42.810Z,70.32
2023-01-06T02:18:06.086Z,70.23
2023-01-06T02:21:55.707Z,70.43
2023-01-06T02:24:57.108Z,70.54
2023-01-06T02:29:03.380Z,70.40
2023-01-06T02:32:29.989Z,70.57
2023-01-06T02:35:45.937Z,70.58
2023-01-06T02:38:53.932Z,70.81
2023-01-06T02:42:20.123Z,70.75
2023-01-06T02:45:32.207Z,70.69
2023-01-06T02:49:22.140Z,70.79
2023-01-06T02:52:50.650Z,70.62
2023-01-06T02:55:56.235Z,70.79
2023-01-06T02:59:12.981Z,70.73
2023-01-06T03:02:17.676Z,70.80
2023-01-06T03:05:21.779Z,70.69
2023-01-06T03:08:27.455Z,70.70
2023-01-06T03:11:31.851Z,70.72
2023-01-06T03:14:39.520Z,70.62
2023-01-06T03:17:41.235Z,70.60
2023-01-06T03:20:43.044Z,70.50
2023-01-06T03:23:46.027Z,70.59
2023-01-06T03:26:49.052Z,70.43
2023-01-06T03:29:51.514Z,70.49
2023-01-06T03:33:02.604Z,70.50
2023-01-06T03:36:33.631Z,70.49
2023-01-06T03:39:47.212Z,70.47
2023-01-06T03:43:13.469Z,70.42
2023-01-06T03:46:47.786Z,70.45
2023-01-06T03:50:02.939Z,70.32
2023-01-06T03:53:16.376Z,70.48
2023-01-06T03:56:28.509Z,70.49
2023-01-06T03:59:33.616Z,70.25
2023-01-06T04:02:37.919Z,70.24
2023-01-06T04:05:39.829Z,70.35
2023-01-06T04:08:42.296Z,70.45
2023-01-06T04:12:02.379Z,70.43
2023-01-06T04:15:12.002Z,70.42
2023-01-06T04:18:13.648Z,70.41
2023-01-06T04:21:17.403Z,70.40
2023-01-06T04:24:18.940Z,70.59
2023-01-06T04:27:21.362Z,70.34
2023-01-06T04:30:22.949Z,70.46
2023-01-06T04:33:24.482Z,70.49
2023-01-06T04:36:28.215Z,70.41
2023-01-06T04:39:30.978Z,70.45
2023-01-06T04:42:52.416Z,70.39
2023-01-06T04:45:54.036Z,70.39
2023-01-06T04:48:56.136Z,70.45
2023-01-06T04:51:57.612Z,70.58
2023-01-06T04:54:59.060Z,70.44
2023-01-06T04:58:01.133Z,70.42
2023-01-06T05:01:09.371Z,70.59
2023-01-06T05:04:11.095Z,70.45
2023-01-06T05:07:12.668Z,70.61
2023-01-06T05:10:14.176Z,70.60
2023-01-06T05:13:15.682Z,70.05
2023-01-06T05:16:23.495Z,70.52
2023-01-06T05:19:24.982Z,70.51
2023-01-06T05:22:26.477Z,70.60
2023-01-06T05:25:27.949Z,70.77
2023-01-06T05:28:30.085Z,70.59
2023-01-06T05:31:31.833Z,70.40
2023-01-06T05:34:33.373Z,70.56
2023-01-06T05:37:35.689Z,70.69
2023-01-06T05:40:37.502Z,70.56
2023-01-06T05:43:40.224Z,70.40
2023-01-06T05:46:41.763Z,70.70
2023-01-06T05:49:43.285Z,70.75
2023-01-06T05:52:44.811Z,70.66
2023-01-06T05:55:46.288Z,70.63
2023-01-06T05:58:50.345Z,70.75
2023-01-06T06:01:51.919Z,70.70
2023-01-06T06:04:53.503Z,70.58
2023-01-06T06:07:56.311Z,70.56
2023-01-06T06:11:05.950Z,70.68
2023-01-06T06:14:09.632Z,70.70
2023-01-06T06:17:11.219Z,70.70
2023-01-06T06:20:12.738Z,70.81
2023-01-06T06:23:14.195Z,70.79
2023-01-06T06:26:15.830Z,70.61
2023-01-06T06:29:17.340Z,70.08
2023-01-06T06:32:18.841Z,70.50
2023-01-06T06:35:20.328Z,70.65
2023-01-06T06:38:21.827Z,70.74
2023-01-06T06:41:25.220Z,70.55
2023-01-06T06:44:26.765Z,70.67
2023-01-06T06:47:28.637Z,70.56
2023-01-06T06:50:30.135Z,70.59
2023-01-06T06:53:32.949Z,70.45
2023-01-06T06:56:34.476Z,70.43
2023-01-06T06:59:35.927Z,70.44
2023-01-06T07:02:37.506Z,70.51
2023-01-06T07:05:39.220Z,70.33
2023-01-06T07:08:45.150Z,70.36
2023-01-06T07:11:46.583Z,70.41
2023-01-06T07:14:48.043Z,70.39
2023-01-06T07:17:49.519Z,70.50
2023-01-06T07:20:53.541Z,70.51
2023-01-06T07:23:55.025Z,70.47
2023-01-06T07:26:56.580Z,70.47
2023-01-06T07:29:58.059Z,70.75
2023-01-06T07:33:00.140Z,70.73
2023-01-06T07:36:01.653Z,70.71
2023-01-06T07:39:03.397Z,70.67
2023-01-06T07:42:07.450Z,70.45
2023-01-06T07:45:09.944Z,70.74
2023-01-06T07:48:11.632Z,70.59
2023-01-06T07:51:13.143Z,70.78
2023-01-06T07:54:14.892Z,70.42
2023-01-06T07:57:17.996Z,70.70
2023-01-06T08:00:20.105Z,70.34
2023-01-06T08:03:21.678Z,70.17
2023-01-06T08:06:23.295Z,70.18
2023-01-06T08:09:24.812Z,69.91
2023-01-06T08:12:26.368Z,69.92
2023-01-06T08:15:27.883Z,69.90
2023-01-06T08:18:29.492Z,69.88
2023-01-06T08:21:31.110Z,69.92
2023-01-06T08:24:32.829Z,69.82
2023-01-06T08:27:34.338Z,69.79
2023-01-06T08:30:39.955Z,70.06
2023-01-06T08:33:41.884Z,70.17
2023-01-06T08:36:44.542Z,70.33
2023-01-06T08:39:46.055Z,70.33
2023-01-06T08:42:47.682Z,70.45
2023-01-06T08:45:49.991Z,70.47
2023-01-06T08:48:51.523Z,70.68
2023-01-06T08:51:53.012Z,70.63
2023-01-06T08:54:54.500Z,70.57
2023-01-06T08:57:56.001Z,70.60
2023-01-06T09:00:57.549Z,70.81
2023-01-06T09:04:00.795Z,70.89
2023-01-06T09:07:02.306Z,70.64
2023-01-06T09:10:04.789Z,70.68
2023-01-06T09:13:06.323Z,70.64
2023-01-06T09:16:09.719Z,70.78
2023-01-06T09:19:11.363Z,70.67
2023-01-06T09:22:12.928Z,70.72
2023-01-06T09:25:14.562Z,70.66
2023-01-06T09:28:16.446Z,70.89
2023-01-06T09:31:18.416Z,70.68
2023-01-06T09:34:19.986Z,70.66
2023-01-06T09:37:21.527Z,70.68
2023-01-06T09:40:30.114Z,70.51
2023-01-06T09:43:37.663Z,70.44
2023-01-06T09:46:41.944Z,70.23
2023-01-06T09:50:21.962Z,70.12
2023-01-06T09:53:31.867Z,70.19
2023-01-06T09:56:33.697Z,69.90
2023-01-06T09:59:41.697Z,69.97
2023-01-06T10:02:43.319Z,69.86
2023-01-06T10:06:29.620Z,69.64
2023-01-06T10:09:33.792Z,69.69
2023-01-06T10:12:47.266Z,69.66
2023-01-06T10:15:59.886Z,69.69
2023-01-06T10:19:07.552Z,69.48
2023-01-06T10:22:40.019Z,69.41
2023-01-06T10:25:46.623Z,69.36
2023-01-06T10:28:53.499Z,69.38
2023-01-06T10:31:58.237Z,69.68
2023-01-06T10:35:00.654Z,69.63
2023-01-06T10:38:10.013Z,69.94
2023-01-06T10:41:19.854Z,70.09
2023-01-06T10:44:21.347Z,70.21
2023-01-06T10:47:30.133Z,70.12
2023-01-06T10:50:34.325Z,70.41
2023-01-06T10:53:36.219Z,70.50
2023-01-06T10:56:39.851Z,70.45
2023-01-06T11:00:09.229Z,70.46
2023-01-06T11:03:32.266Z,70.57
2023-01-06T11:06:35.785Z,70.61
2023-01-06T11:09:42.780Z,70.64
2023-01-06T11:12:45.927Z,70.79
2023-01-06T11:15:47.790Z,70.92
2023-01-06T11:18:58.394Z,71.09
2023-01-06T11:21:59.959Z,71.80
2023-01-06T11:25:01.590Z,71.88
2023-01-06T11:28:09.158Z,72.01
2023-01-06T11:31:13.498Z,72.16
2023-01-06T11:34:24.469Z,72.28
2023-01-06T11:37:44.110Z,72.26
2023-01-06T11:40:47.937Z,72.35
2023-01-06T11:43:51.697Z,72.46
2023-01-06T11:47:08.282Z,72.57
2023-01-06T11:50:19.450Z,72.38
2023-01-06T11:53:21.638Z,72.81
2023-01-06T11:56:23.634Z,72.62
2023-01-06T11:59:26.988Z,72.53
2023-01-06T12:02:48.546Z,72.44
2023-01-06T12:06:04.306Z,72.44
2023-01-06T12:09:09.308Z,72.47
2023-01-06T12:12:20.191Z,73.22
2023-01-06T12:15:22.756Z,72.65
2023-01-06T12:18:29.805Z,72.71
2023-01-06T12:21:34.653Z,72.75
2023-01-06T12:24:37.674Z,72.88
2023-01-06T12:27:54.258Z,72.74
2023-01-06T12:31:01.130Z,72.94
2023-01-06T12:34:15.711Z,73.03
2023-01-06T12:37:30.496Z,72.99
2023-01-06T12:40:54.953Z,72.96
2023-01-06T12:44:11.394Z,73.00
2023-01-06T12:47:36.039Z,73.02
2023-01-06T12:50:45.127Z,72.98
2023-01-06T12:54:00.280Z,73.00
2023-01-06T12:57:30.946Z,73.04
2023-01-06T13:00:49.617Z,73.02
2023-01-06T13:04:26.794Z,73.12
2023-01-06T13:07:48.529Z,73.15
2023-01-06T13:11:14.768Z,73.15
2023-01-06T13:14:44.479Z,73.19
2023-01-06T13:17:56.139Z,73.13
2023-01-06T13:21:15.806Z,73.07
2023-01-06T13:24:26.216Z,73.22
2023-01-06T13:27:39.455Z,73.00
2023-01-06T13:30:52.803Z,72.85
2023-01-06T13:34:12.617Z,72.96
2023-01-06T13:37:35.123Z,72.84
2023-01-06T13:40:39.621Z,72.90
2023-01-06T13:43:43.467Z,73.07
2023-01-06T13:46:47.204Z,73.07
2023-01-06T13:49:49.911Z,73.15
2023-01-06T13:52:51.536Z,73.25
2023-01-06T13:56:11.854Z,73.26
2023-01-06T13:59:21.136Z,73.17
2023-01-06T14:02:34.670Z,72.97
2023-01-06T14:05:36.134Z,73.03
2023-01-06T14:08:48.956Z,72.97
2023-01-06T14:11:51.091Z,73.12
2023-01-06T14:14:58.887Z,72.78
2023-01-06T14:18:02.395Z,72.76
2023-01-06T14:21:30.556Z,72.67
2023-01-06T14:24:36.044Z,72.69
2023-01-06T14:27:47.007Z,72.45
2023-01-06T14:30:50.448Z,72.26
2023-01-06T14:33:54.728Z,72.46
2023-01-06T14:36:59.571Z,72.27
2023-01-06T14:40:02.113Z,72.37
2023-01-06T14:43:22.955Z,72.39
2023-01-06T14:46:30.257Z,72.60
2023-01-06T14:49:38.012Z,72.49
2023-01-06T14:52:48.321Z,72.55
2023-01-06T14:55:50.559Z,72.54
2023-01-06T14:59:03.034Z,72.44
2023-01-06T15:02:15.204Z,72.38
2023-01-06T15:05:27.827Z,72.46
2023-01-06T15:08:29.369Z,72.36
2023-01-06T15:11:33.302Z,72.50
2023-01-06T15:14:35.125Z,72.60
2023-01-06T15:17:36.628Z,72.55
2023-01-06T15:20:43.424Z,72.46
2023-01-06T15:23:50.474Z,72.25
2023-01-06T15:26:54.493Z,72.51
2023-01-06T15:29:57.240Z,72.39
2023-01-06T15:32:59.148Z,72.73
2023-01-06T15:36:01.321Z,72.60
2023-01-06T15:39:04.563Z,72.53
2023-01-06T15:42:09.152Z,72.55
2023-01-06T15:45:32.375Z,72.63
2023-01-06T15:48:38.931Z,72.57
2023-01-06T15:51:40.320Z,72.56
2023-01-06T15:54:45.383Z,72.34
2023-01-06T15:57:52.371Z,72.43
2023-01-06T16:01:08.071Z,72.46
2023-01-06T16:04:15.764Z,72.53
2023-01-06T16:07:44.664Z,72.29
2023-01-06T16:10:46.589Z,72.32
2023-01-06T16:13:53.929Z,72.08
2023-01-06T16:17:10.488Z,71.85
2023-01-06T16:20:23.939Z,71.79
2023-01-06T16:23:38.639Z,71.79
2023-01-06T16:26:51.839Z,71.95
2023-01-06T16:30:13.538Z,71.56
2023-01-06T16:33:54.632Z,71.57
2023-01-06T16:36:57.925Z,71.39
2023-01-06T16:39:59.881Z,71.34
2023-01-06T16:43:02.732Z,71.31
2023-01-06T16:46:13.319Z,71.19
2023-01-06T16:49:14.831Z,71.43
2023-01-06T16:52:16.350Z,71.28
2023-01-06T16:55:19.594Z,71.14
2023-01-06T16:58:26.482Z,71.29
2023-01-06T17:01:29.134Z,71.26
2023-01-06T17:04:30.907Z,71.32
2023-01-06T17:07:32.413Z,71.35
2023-01-06T17:10:33.936Z,71.32
2023-01-06T17:13:35.635Z,71.33
2023-01-06T17:16:40.424Z,71.38
2023-01-06T17:19:42.136Z,71.36
2023-01-06T17:22:43.703Z,71.36
2023-01-06T17:25:46.007Z,71.34
2023-01-06T17:28:49.365Z,71.14
2023-01-06T17:31:55.182Z,71.10
2023-01-06T17:34:57.691Z,71.18
2023-01-06T17:38:02.393Z,71.23
2023-01-06T17:41:09.404Z,71.17
2023-01-06T17:44:33.771Z,71.21
2023-01-06T17:48:01.294Z,71.24
2023-01-06T17:51:02.827Z,71.37
2023-01-06T17:54:34.378Z,71.28
2023-01-06T17:57:38.824Z,71.21
2023-01-06T18:00:40.433Z,71.12
2023-01-06T18:03:43.869Z,71.26
2023-01-06T18:06:52.505Z,71.28
2023-01-06T18:09:54.206Z,71.16
2023-01-06T18:12:56.949Z,71.13
2023-01-06T18:15:59.846Z,71.06
2023-01-06T18:19:23.147Z,71.02
2023-01-06T18:22:25.447Z,71.17
2023-01-06T18:25:27.645Z,71.08
2023-01-06T18:28:29.758Z,71.10
2023-01-06T18:31:35.865Z,71.46
2023-01-06T18:34:42.988Z,71.84
2023-01-06T18:37:44.696Z,72.11
2023-01-06T18:40:46.250Z,72.52
2023-01-06T18:43:47.728Z,72.83
2023-01-06T18:46:50.695Z,73.60
2023-01-06T18:50:00.719Z,73.05
2023-01-06T18:53:13.825Z,69.70
2023-01-06T18:56:22.412Z,68.32
2023-01-06T18:59:27.387Z,68.52
2023-01-06T19:02:37.087Z,69.88
2023-01-06T19:05:38.589Z,70.96
2023-01-06T19:08:43.195Z,71.27
2023-01-06T19:11:46.856Z,71.69
2023-01-06T19:14:51.689Z,72.08
2023-01-06T19:17:56.318Z,72.23
2023-01-06T19:20:59.536Z,72.34
2023-01-06T19:24:08.896Z,72.27
2023-01-06T19:27:24.175Z,72.51
2023-01-06T19:30:36.631Z,72.36
2023-01-06T19:33:44.513Z,72.54
2023-01-06T19:36:54.759Z,72.49
2023-01-06T19:39:57.951Z,72.85
2023-01-06T19:43:10.384Z,72.58
2023-01-06T19:46:23.291Z,72.40
2023-01-06T19:49:44.420Z,72.35
2023-01-06T19:52:45.969Z,72.26
2023-01-06T19:55:47.433Z,72.38
2023-01-06T19:58:54.650Z,72.13
2023-01-06T20:02:26.834Z,72.03
2023-01-06T20:05:29.543Z,71.84
2023-01-06T20:08:31.077Z,71.78
2023-01-06T20:11:32.571Z,71.67
2023-01-06T20:14:34.093Z,71.79
2023-01-06T20:17:35.596Z,71.67
2023-01-06T20:20:37.065Z,71.62
2023-01-06T20:23:38.547Z,71.18
2023-01-06T20:26:40.330Z,71.14
2023-01-06T20:29:41.831Z,71.18
2023-01-06T20:32:43.396Z,70.95
2023-01-06T20:35:44.913Z,71.01
2023-01-06T20:38:46.541Z,70.98
2023-01-06T20:41:48.080Z,70.86
2023-01-06T20:44:49.687Z,70.74
2023-01-06T20:47:51.288Z,70.87
2023-01-06T20:50:53.393Z,70.81
2023-01-06T20:53:54.911Z,70.48
2023-01-06T20:56:56.882Z,70.46
2023-01-06T20:59:58.463Z,70.23
2023-01-06T21:03:00.000Z,70.20
2023-01-06T21:06:01.531Z,70.09
2023-01-06T21:09:03.248Z,69.90
2023-01-06T21:12:05.086Z,69.94
2023-01-06T21:15:07.559Z,69.86
2023-01-06T21:18:09.053Z,70.01
2023-01-06T21:21:10.586Z,69.67
2023-01-06T21:24:12.118Z,69.77
2023-01-06T21:27:13.626Z,69.59
2023-01-06T21:30:16.927Z,69.49
2023-01-06T21:33:21.214Z,69.32
2023-01-06T21:36:23.022Z,69.28
2023-01-06T21:39:24.646Z,69.24
2023-01-06T21:42:44.688Z,69.40
2023-01-06T21:45:46.549Z,69.14
2023-01-06T21:48:48.034Z,69.11
2023-01-06T21:51:51.178Z,69.11
2023-01-06T21:54:52.707Z,69.06
2023-01-06T21:57:54.248Z,68.89
2023-01-06T22:00:55.812Z,69.01
2023-01-06T22:03:57.352Z,68.78
2023-01-06T22:07:02.555Z,68.58
2023-01-06T22:10:06.041Z,68.43
2023-01-06T22:13:10.809Z,68.67
2023-01-06T22:16:12.932Z,68.89
2023-01-06T22:19:16.350Z,68.97
2023-01-06T22:22:18.207Z,69.18
2023-01-06T22:25:19.778Z,68.62
2023-01-06T22:28:21.357Z,68.87
2023-01-06T22:31:22.941Z,68.67
2023-01-06T22:34:24.416Z,68.54
2023-01-06T22:37:25.926Z,68.55
2023-01-06T22:40:27.699Z,68.46
2023-01-06T22:43:29.294Z,68.46
2023-01-06T22:46:30.841Z,68.37
2023-01-06T22:49:32.350Z,68.20
2023-01-06T22:52:33.869Z,68.23
2023-01-06T22:55:35.562Z,67.97
2023-01-06T22:58:38.899Z,67.88
2023-01-06T23:01:40.484Z,67.77
2023-01-06T23:04:42.021Z,67.89
2023-01-06T23:07:44.223Z,67.84
2023-01-06T23:10:45.706Z,67.74
2023-01-06T23:13:48.783Z,67.67
2023-01-06T23:16:50.263Z,67.68
2023-01-06T23:19:51.735Z,67.85
2023-01-06T23:22:53.181Z,67.30
2023-01-06T23:26:01.435Z,67.43
2023-01-06T23:29:03.482Z,67.63
2023-01-06T23:32:05.037Z,67.53
2023-01-06T23:35:06.818Z,67.41
2023-01-06T23:38:08.408Z,67.55
2023-01-06T23:41:18.689Z,67.33
2023-01-06T23:44:21.352Z,67.22
2023-01-06T23:47:22.954Z,67.31
2023-01-06T23:50:24.619Z,67.51
2023-01-06T23:53:27.442Z,67.28
2023-01-06T23:56:32.510Z,67.13
2023-01-06T23:59:33.975Z,67.17
